createdAt,value
2019-05-23T00:02:04.949Z,62.63
2019-05-23T00:05:11.937Z,47.83
2019-05-23T00:08:14.157Z,48.80
2019-05-23T00:11:40.611Z,52.70
2019-05-23T00:14:44.053Z,48.13
2019-05-23T00:17:43.150Z,47.10
2019-05-23T00:20:42.328Z,52.40
2019-05-23T00:23:41.374Z,51.80
2019-05-23T00:26:42.183Z,51.10
2019-05-23T00:29:43.135Z,56.70
2019-05-23T00:32:46.827Z,49.20
2019-05-23T00:35:45.903Z,51.50
2019-05-23T00:38:45.338Z,45.03
2019-05-23T00:41:44.733Z,60.47
2019-05-23T00:44:44.614Z,71.87
2019-05-23T00:47:44.123Z,55.17
2019-05-23T00:50:44.746Z,69.73
2019-05-23T00:53:44.031Z,60.07
2019-05-23T00:56:43.245Z,76.23
2019-05-23T00:59:43.583Z,66.70
2019-05-23T01:02:42.991Z,96.40
2019-05-23T01:05:43.083Z,78.40
2019-05-23T01:08:42.628Z,89.47
2019-05-23T01:11:41.943Z,70.90
2019-05-23T01:14:41.335Z,75.73
2019-05-23T01:17:40.150Z,87.93
2019-05-23T01:20:56.930Z,64.97
2019-05-23T01:24:12.330Z,59.37
2019-05-23T01:27:12.800Z,62.97
2019-05-23T01:30:14.829Z,54.50
2019-05-23T01:33:14.965Z,62.87
2019-05-23T01:36:15.158Z,64.70
2019-05-23T01:39:14.529Z,54.37
2019-05-23T01:42:14.069Z,51.70
2019-05-23T01:45:14.653Z,52.33
2019-05-23T01:48:13.723Z,44.50
2019-05-23T01:51:13.907Z,57.33
2019-05-23T01:54:13.573Z,38.20
2019-05-23T01:57:12.634Z,48.53
2019-05-23T02:00:13.229Z,50.23
2019-05-23T02:03:12.722Z,53.40
2019-05-23T02:06:12.217Z,52.97
2019-05-23T02:09:12.089Z,51.57
2019-05-23T02:12:12.564Z,60.53
2019-05-23T02:15:12.008Z,56.80
2019-05-23T02:18:12.384Z,59.40
2019-05-23T02:21:11.285Z,52.77
2019-05-23T02:24:11.947Z,65.40
2019-05-23T02:27:11.839Z,58.83
2019-05-23T02:30:32.199Z,52.77
2019-05-23T02:33:14.467Z,58.03
2019-05-23T02:36:13.905Z,66.80
2019-05-23T02:39:30.382Z,63.33
2019-05-23T02:42:34.754Z,57.97
2019-05-23T02:45:41.258Z,54.33
2019-05-23T02:48:43.266Z,57.57
2019-05-23T02:51:43.906Z,56.80
2019-05-23T02:54:42.909Z,52.80
2019-05-23T02:57:43.075Z,61.33
2019-05-23T03:00:55.922Z,50.17
2019-05-23T03:03:56.879Z,45.00
2019-05-23T03:06:57.669Z,50.00
2019-05-23T03:09:56.464Z,46.20
2019-05-23T03:12:57.959Z,53.60
2019-05-23T03:15:58.193Z,43.70
2019-05-23T03:19:01.974Z,49.07
2019-05-23T03:22:27.954Z,49.77
2019-05-23T03:25:59.098Z,47.47
2019-05-23T03:28:58.088Z,49.50
2019-05-23T03:32:03.145Z,43.67
2019-05-23T03:35:12.531Z,46.40
2019-05-23T03:38:13.094Z,50.07
2019-05-23T03:41:12.409Z,53.63
2019-05-23T03:44:11.597Z,53.70
2019-05-23T03:47:14.476Z,51.03
2019-05-23T03:50:14.330Z,59.80
2019-05-23T03:53:13.333Z,76.50
2019-05-23T03:56:13.577Z,79.37
2019-05-23T03:59:14.394Z,76.77
2019-05-23T04:02:15.906Z,90.00
2019-05-23T04:05:15.286Z,73.77
2019-05-23T04:08:15.854Z,91.77
2019-05-23T04:11:15.206Z,72.93
2019-05-23T04:14:14.467Z,117.27
2019-05-23T04:17:14.137Z,86.97
2019-05-23T04:20:13.137Z,89.87
2019-05-23T04:23:12.442Z,77.93
2019-05-23T04:26:11.352Z,73.10
2019-05-23T04:29:10.403Z,64.43
2019-05-23T04:32:09.594Z,60.80
2019-05-23T04:35:08.794Z,64.00
2019-05-23T04:38:08.391Z,61.43
2019-05-23T04:41:07.262Z,60.37
2019-05-23T04:44:06.212Z,58.23
2019-05-23T04:47:05.814Z,59.50
2019-05-23T04:50:06.344Z,53.10
2019-05-23T04:53:06.578Z,61.07
2019-05-23T04:56:06.552Z,59.63
2019-05-23T04:59:06.143Z,54.70
2019-05-23T05:02:05.244Z,72.17
2019-05-23T05:05:04.680Z,63.37
2019-05-23T05:08:03.603Z,53.40
2019-05-23T05:11:02.773Z,47.27
2019-05-23T05:14:01.496Z,54.50
2019-05-23T05:17:00.369Z,53.33
2019-05-23T05:19:59.159Z,54.87
2019-05-23T05:22:58.066Z,59.97
2019-05-23T05:25:57.061Z,45.60
2019-05-23T05:28:56.059Z,52.57
2019-05-23T05:31:55.886Z,49.57
2019-05-23T05:34:55.451Z,51.03
2019-05-23T05:37:54.599Z,47.03
2019-05-23T05:40:53.759Z,54.77
2019-05-23T05:43:53.039Z,45.10
2019-05-23T05:46:52.687Z,44.53
2019-05-23T05:49:52.585Z,43.07
2019-05-23T05:52:51.574Z,49.57
2019-05-23T05:55:50.616Z,46.40
2019-05-23T05:58:49.421Z,41.20
2019-05-23T06:01:48.208Z,35.13
2019-05-23T06:04:47.540Z,33.37
2019-05-23T06:07:47.511Z,33.93
2019-05-23T06:10:46.953Z,33.50
2019-05-23T06:13:45.845Z,28.50
2019-05-23T06:16:45.352Z,24.60
2019-05-23T06:19:44.169Z,27.87
2019-05-23T06:22:44.160Z,32.13
2019-05-23T06:25:43.209Z,27.30
2019-05-23T06:28:43.815Z,27.97
2019-05-23T06:31:43.104Z,30.47
2019-05-23T06:34:42.117Z,29.03
2019-05-23T06:37:41.190Z,26.40
2019-05-23T06:40:40.872Z,27.23
2019-05-23T06:43:39.997Z,23.47
2019-05-23T06:46:40.174Z,27.40
2019-05-23T06:49:39.222Z,23.83
2019-05-23T06:52:38.373Z,28.43
2019-05-23T06:55:38.227Z,21.90
2019-05-23T06:58:37.687Z,22.97
2019-05-23T07:01:36.745Z,21.90
2019-05-23T07:04:36.035Z,22.83
2019-05-23T07:07:36.456Z,22.57
2019-05-23T07:10:35.620Z,19.23
2019-05-23T07:13:36.006Z,18.80
2019-05-23T07:16:38.506Z,17.27
2019-05-23T07:19:37.590Z,14.10
2019-05-23T07:22:37.255Z,13.23
2019-05-23T07:25:36.277Z,14.90
2019-05-23T07:28:36.033Z,16.10
2019-05-23T07:31:35.625Z,14.23
2019-05-23T07:34:35.139Z,16.40
2019-05-23T07:37:33.858Z,16.77
2019-05-23T07:40:33.125Z,22.45
2019-05-23T07:43:32.112Z,19.57
2019-05-23T07:46:31.481Z,20.60
2019-05-23T07:49:30.634Z,18.60
2019-05-23T07:52:29.391Z,20.83
2019-05-23T07:55:41.659Z,18.97
2019-05-23T07:58:41.230Z,24.73
2019-05-23T08:01:43.135Z,17.50
2019-05-23T08:04:42.460Z,15.23
2019-05-23T08:07:41.913Z,17.07
2019-05-23T08:10:41.218Z,18.90
2019-05-23T08:13:40.942Z,18.27
2019-05-23T08:16:40.563Z,22.20
2019-05-23T08:19:48.959Z,18.37
2019-05-23T08:22:40.370Z,14.70
2019-05-23T08:25:39.187Z,16.77
2019-05-23T08:28:53.364Z,21.90
2019-05-23T08:31:38.566Z,19.27
2019-05-23T08:34:42.108Z,13.33
2019-05-23T08:37:38.822Z,15.60
2019-05-23T08:40:37.903Z,14.80
2019-05-23T08:43:37.054Z,16.23
2019-05-23T08:46:36.540Z,15.20
2019-05-23T08:49:35.436Z,14.73
2019-05-23T08:52:34.291Z,20.80
2019-05-23T08:55:34.413Z,17.20
2019-05-23T08:58:33.463Z,15.60
2019-05-23T09:01:32.200Z,16.87
2019-05-23T09:04:31.593Z,15.33
2019-05-23T09:07:30.843Z,16.50
2019-05-23T09:10:29.964Z,15.23
2019-05-23T09:13:29.638Z,16.60
2019-05-23T09:16:28.917Z,17.30
2019-05-23T09:19:28.230Z,20.97
2019-05-23T09:22:27.527Z,15.97
2019-05-23T09:25:26.920Z,17.63
2019-05-23T09:28:25.756Z,18.53
2019-05-23T09:31:27.391Z,14.23
2019-05-23T09:34:26.424Z,13.37
2019-05-23T09:37:25.816Z,16.20
2019-05-23T09:40:24.805Z,15.40
2019-05-23T09:43:23.591Z,15.60
2019-05-23T09:46:22.847Z,18.87
2019-05-23T09:49:22.140Z,16.23
2019-05-23T09:52:21.600Z,12.50
2019-05-23T09:55:20.723Z,14.80
2019-05-23T09:58:19.463Z,12.50
2019-05-23T10:01:18.828Z,18.73
2019-05-23T10:04:18.124Z,13.80
2019-05-23T10:07:16.925Z,14.40
2019-05-23T10:10:17.570Z,13.73
2019-05-23T10:13:16.562Z,13.80
2019-05-23T10:16:15.736Z,15.30
2019-05-23T10:19:14.507Z,21.90
2019-05-23T10:22:14.239Z,16.80
2019-05-23T10:25:13.591Z,15.00
2019-05-23T10:28:12.755Z,12.40
2019-05-23T10:31:12.521Z,14.50
2019-05-23T10:34:11.357Z,10.50
2019-05-23T10:37:12.343Z,19.80
2019-05-23T10:40:11.472Z,15.07
2019-05-23T10:43:10.977Z,10.93
2019-05-23T10:46:10.240Z,9.90
2019-05-23T10:49:09.433Z,13.80
2019-05-23T10:52:08.236Z,12.57
2019-05-23T10:55:07.261Z,15.30
2019-05-23T10:58:06.080Z,12.03
2019-05-23T11:01:04.975Z,12.13
2019-05-23T11:04:04.122Z,11.77
2019-05-23T11:07:03.931Z,12.23
2019-05-23T11:10:03.275Z,9.60
2019-05-23T11:13:02.325Z,11.63
2019-05-23T11:16:01.299Z,10.93
2019-05-23T11:19:00.524Z,10.90
2019-05-23T11:21:59.668Z,11.07
2019-05-23T11:24:58.651Z,11.90
2019-05-23T11:27:57.838Z,11.00
2019-05-23T11:30:58.397Z,13.67
2019-05-23T11:33:57.103Z,11.50
2019-05-23T11:36:55.935Z,12.87
2019-05-23T11:39:54.970Z,14.53
2019-05-23T11:42:53.774Z,10.90
2019-05-23T11:45:59.652Z,11.47
2019-05-23T11:48:58.659Z,10.43
2019-05-23T11:51:58.386Z,8.97
2019-05-23T11:54:57.611Z,8.57
2019-05-23T11:57:56.846Z,10.03
2019-05-23T12:01:33.038Z,13.13
2019-05-23T12:04:38.908Z,11.87
2019-05-23T12:07:38.086Z,7.87
2019-05-23T12:10:36.882Z,10.77
2019-05-23T12:13:35.965Z,12.43
2019-05-23T12:16:34.747Z,10.17
2019-05-23T12:19:34.625Z,7.20
2019-05-23T12:22:34.143Z,11.13
2019-05-23T12:25:32.996Z,10.20
2019-05-23T12:28:31.870Z,8.00
2019-05-23T12:31:30.951Z,7.70
2019-05-23T12:34:30.000Z,8.70
2019-05-23T12:37:29.544Z,10.63
2019-05-23T12:40:28.942Z,10.43
2019-05-23T12:43:27.932Z,11.20
2019-05-23T12:46:26.651Z,9.57
2019-05-23T12:49:36.450Z,10.10
2019-05-23T12:52:35.584Z,9.57
2019-05-23T12:55:34.996Z,12.20
2019-05-23T12:58:35.938Z,9.67
2019-05-23T13:01:36.738Z,9.10
2019-05-23T13:04:36.133Z,11.03
2019-05-23T13:07:36.893Z,9.90
2019-05-23T13:10:35.979Z,11.30
2019-05-23T13:13:34.756Z,10.20
2019-05-23T13:16:33.659Z,8.57
2019-05-23T13:19:32.440Z,9.47
2019-05-23T13:22:31.387Z,12.53
2019-05-23T13:25:30.633Z,10.13
2019-05-23T13:28:30.124Z,11.80
2019-05-23T13:31:29.218Z,8.30
2019-05-23T13:34:28.558Z,11.53
2019-05-23T13:37:28.594Z,12.07
2019-05-23T13:40:27.872Z,15.30
2019-05-23T13:43:27.331Z,10.80
2019-05-23T13:46:26.083Z,12.63
2019-05-23T13:49:25.478Z,14.77
2019-05-23T13:52:24.196Z,12.67
2019-05-23T13:55:23.671Z,10.27
2019-05-23T13:58:22.465Z,10.80
2019-05-23T14:01:21.505Z,12.10
2019-05-23T14:04:20.688Z,10.63
2019-05-23T14:07:20.483Z,13.00
2019-05-23T14:10:19.844Z,10.40
2019-05-23T14:13:18.822Z,13.57
2019-05-23T14:16:17.698Z,9.43
2019-05-23T14:19:16.780Z,14.03
2019-05-23T14:22:15.711Z,14.20
2019-05-23T14:25:16.789Z,10.90
2019-05-23T14:28:17.228Z,16.37
2019-05-23T14:31:18.592Z,11.33
2019-05-23T14:34:19.020Z,10.23
2019-05-23T14:37:24.138Z,10.83
2019-05-23T14:40:23.323Z,13.63
2019-05-23T14:43:26.136Z,10.07
2019-05-23T14:46:26.701Z,15.20
2019-05-23T14:49:31.347Z,10.67
2019-05-23T14:52:36.791Z,10.40
2019-05-23T14:55:36.443Z,14.63
2019-05-23T14:58:35.321Z,10.83
2019-05-23T15:01:35.567Z,15.13
2019-05-23T15:04:34.352Z,15.50
2019-05-23T15:07:34.975Z,13.40
2019-05-23T15:10:33.975Z,10.07
2019-05-23T15:13:32.689Z,14.50
2019-05-23T15:16:31.902Z,9.23
2019-05-23T15:19:40.360Z,8.90
2019-05-23T15:22:32.029Z,11.83
2019-05-23T15:25:31.024Z,11.77
2019-05-23T15:28:30.072Z,9.70
2019-05-23T15:31:29.064Z,13.23
2019-05-23T15:34:27.813Z,14.93
2019-05-23T15:37:27.129Z,10.00
2019-05-23T15:40:26.531Z,11.33
2019-05-23T15:43:24.245Z,13.57
2019-05-23T15:46:23.262Z,10.43
2019-05-23T15:49:22.334Z,12.50
2019-05-23T15:52:35.860Z,10.63
2019-05-23T15:55:43.424Z,11.60
2019-05-23T15:58:53.989Z,11.40
2019-05-23T16:02:06.459Z,10.97
2019-05-23T16:05:07.381Z,9.60
2019-05-23T16:08:06.509Z,8.70
2019-05-23T16:11:05.384Z,10.00
2019-05-23T16:14:04.248Z,10.53
2019-05-23T16:17:05.295Z,8.77
2019-05-23T16:20:04.507Z,10.70
2019-05-23T16:23:03.483Z,7.63
2019-05-23T16:26:02.287Z,7.10
2019-05-23T16:29:01.074Z,11.70
2019-05-23T16:31:59.884Z,12.00
2019-05-23T16:34:59.261Z,14.90
2019-05-23T16:37:58.382Z,9.53
2019-05-23T16:40:57.174Z,8.17
2019-05-23T16:43:56.176Z,7.03
2019-05-23T16:46:54.916Z,8.70
2019-05-23T16:49:53.987Z,14.53
2019-05-23T16:52:53.029Z,7.60
2019-05-23T16:55:58.169Z,6.37
2019-05-23T16:59:19.530Z,11.47
2019-05-23T17:02:26.436Z,7.20
2019-05-23T17:05:41.315Z,9.40
2019-05-23T17:09:11.530Z,9.97
2019-05-23T17:12:35.509Z,11.17
2019-05-23T17:15:47.665Z,10.00
2019-05-23T17:19:12.018Z,11.33
2019-05-23T17:22:21.036Z,12.00
2019-05-23T17:25:34.662Z,11.77
2019-05-23T17:28:53.663Z,11.07
2019-05-23T17:31:54.318Z,8.50
2019-05-23T17:34:53.026Z,9.53
2019-05-23T17:37:52.183Z,7.13
2019-05-23T17:40:52.339Z,7.40
2019-05-23T17:43:50.174Z,8.97
2019-05-23T17:46:47.997Z,7.90
2019-05-23T17:49:46.243Z,7.27
2019-05-23T17:52:44.057Z,11.10
2019-05-23T17:55:41.787Z,8.37
2019-05-23T17:58:39.532Z,10.30
2019-05-23T18:01:37.196Z,11.10
2019-05-23T18:04:34.968Z,12.53
2019-05-23T18:07:33.292Z,8.97
2019-05-23T18:10:43.717Z,15.33
2019-05-23T18:13:31.805Z,7.73
2019-05-23T18:16:30.389Z,7.33
2019-05-23T18:19:28.646Z,11.97
2019-05-23T18:22:26.577Z,7.83
2019-05-23T18:25:25.215Z,8.27
2019-05-23T18:28:24.198Z,9.77
2019-05-23T18:31:25.169Z,14.03
2019-05-23T18:34:23.907Z,9.00
2019-05-23T18:37:22.170Z,8.53
2019-05-23T18:40:20.065Z,9.00
2019-05-23T18:43:18.487Z,8.57
2019-05-23T18:46:28.399Z,7.20
2019-05-23T18:49:26.908Z,7.87
2019-05-23T18:52:24.744Z,5.43
2019-05-23T18:55:22.720Z,5.63
2019-05-23T18:58:20.713Z,5.00
2019-05-23T19:01:21.206Z,6.30
2019-05-23T19:04:19.249Z,5.93
2019-05-23T19:07:17.070Z,6.23
2019-05-23T19:10:15.613Z,5.33
2019-05-23T19:13:13.336Z,6.10
2019-05-23T19:16:11.517Z,6.27
2019-05-23T19:19:09.307Z,8.63
2019-05-23T19:22:07.329Z,7.63
2019-05-23T19:25:05.066Z,5.83
2019-05-23T19:28:02.763Z,5.20
2019-05-23T19:31:00.465Z,6.20
2019-05-23T19:33:58.325Z,7.77
2019-05-23T19:36:56.259Z,17.57
2019-05-23T19:39:54.076Z,4.60
2019-05-23T19:42:52.259Z,5.83
2019-05-23T19:45:50.726Z,5.30
2019-05-23T19:48:49.122Z,4.43
2019-05-23T19:51:47.261Z,4.70
2019-05-23T19:54:45.020Z,7.30
2019-05-23T19:57:43.196Z,7.47
2019-05-23T20:00:42.832Z,6.80
2019-05-23T20:03:40.637Z,7.43
2019-05-23T20:06:38.378Z,7.70
2019-05-23T20:09:36.752Z,6.37
2019-05-23T20:12:35.357Z,13.37
2019-05-23T20:15:33.537Z,6.13
2019-05-23T20:18:31.301Z,10.67
2019-05-23T20:21:29.476Z,6.60
2019-05-23T20:24:27.328Z,5.93
2019-05-23T20:27:25.368Z,5.93
2019-05-23T20:30:58.104Z,7.13
2019-05-23T20:33:56.108Z,12.73
2019-05-23T20:36:54.133Z,7.20
2019-05-23T20:39:51.918Z,6.37
2019-05-23T20:42:49.594Z,6.73
2019-05-23T20:45:48.434Z,7.87
2019-05-23T20:48:46.252Z,9.30
2019-05-23T20:51:44.166Z,12.00
2019-05-23T20:54:41.908Z,8.80
2019-05-23T20:57:39.561Z,5.53
2019-05-23T21:00:44.945Z,5.80
2019-05-23T21:03:43.888Z,8.87
2019-05-23T21:06:41.563Z,7.53
2019-05-23T21:09:39.893Z,5.87
2019-05-23T21:12:37.553Z,9.53
2019-05-23T21:15:35.915Z,8.43
2019-05-23T21:18:33.875Z,8.83
2019-05-23T21:21:31.613Z,8.27
2019-05-23T21:24:31.220Z,8.93
2019-05-23T21:27:29.202Z,8.53
2019-05-23T21:30:27.512Z,6.50
2019-05-23T21:33:25.549Z,9.93
2019-05-23T21:36:23.456Z,6.10
2019-05-23T21:39:21.361Z,7.80
2019-05-23T21:42:19.287Z,6.37
2019-05-23T21:45:17.193Z,8.50
2019-05-23T21:48:15.082Z,10.60
2019-05-23T21:51:12.987Z,6.97
2019-05-23T21:54:11.063Z,6.87
2019-05-23T21:57:08.725Z,7.93
2019-05-23T22:00:08.281Z,6.17
2019-05-23T22:03:06.502Z,8.27
2019-05-23T22:06:05.049Z,8.60
2019-05-23T22:09:04.425Z,7.53
2019-05-23T22:12:02.632Z,9.70
2019-05-23T22:15:00.480Z,6.90
2019-05-23T22:17:58.472Z,7.60
2019-05-23T22:20:56.815Z,9.63
2019-05-23T22:23:54.476Z,7.20
2019-05-23T22:26:52.521Z,8.33
2019-05-23T22:29:50.175Z,7.63
2019-05-23T22:32:49.484Z,10.30
2019-05-23T22:35:47.312Z,5.90
2019-05-23T22:38:45.389Z,6.67
2019-05-23T22:41:43.190Z,7.90
2019-05-23T22:44:41.390Z,7.90
2019-05-23T22:47:39.759Z,11.87
2019-05-23T22:50:37.834Z,8.00
2019-05-23T22:53:35.548Z,8.80
2019-05-23T22:56:33.288Z,7.90
2019-05-23T22:59:30.950Z,7.47
2019-05-23T23:02:29.341Z,7.47
2019-05-23T23:05:27.539Z,5.93
2019-05-23T23:08:25.802Z,7.63
2019-05-23T23:11:24.074Z,6.30
2019-05-23T23:14:21.804Z,13.50
2019-05-23T23:17:19.744Z,8.20
2019-05-23T23:20:17.558Z,5.30
2019-05-23T23:23:15.292Z,10.30
2019-05-23T23:26:12.969Z,6.50
2019-05-23T23:29:11.037Z,6.37
2019-05-23T23:32:09.144Z,5.93
2019-05-23T23:35:07.270Z,8.40
2019-05-23T23:38:05.283Z,7.37
2019-05-23T23:41:03.032Z,7.90
2019-05-23T23:44:01.016Z,5.87
2019-05-23T23:47:16.916Z,6.03
2019-05-23T23:50:32.515Z,7.37
2019-05-23T23:53:48.548Z,7.40
2019-05-23T23:57:04.521Z,8.40
